sensor_id;sensor_type;location;lat;lon;timestamp;P1;durP1;ratioP1;P2;durP2;ratioP2
11709;SDS011;5911;51.036;6.972;2023-04-15T00:01:05;5.30;;;2.80;;
11709;SDS011;5911;51.036;6.972;2023-04-15T00:03:33;5.03;;;2.70;;
11709;SDS011;5911;51.036;6.972;2023-04-15T00:06:02;6.30;;;3.03;;
11709;SDS011;5911;51.036;6.972;2023-04-15T00:08:30;5.40;;;2.90;;
11709;SDS011;5911;51.036;6.972;2023-04-15T00:10:58;4.17;;;2.87;;
11709;SDS011;5911;51.036;6.972;2023-04-15T00:13:29;3.37;;;2.27;;
11709;SDS011;5911;51.036;6.972;2023-04-15T00:15:57;4.63;;;2.93;;
11709;SDS011;5911;51.036;6.972;2023-04-15T00:18:26;5.67;;;3.07;;
11709;SDS011;5911;51.036;6.972;2023-04-15T00:20:54;5.30;;;2.90;;
11709;SDS011;5911;51.036;6.972;2023-04-15T00:23:22;5.00;;;3.00;;
11709;SDS011;5911;51.036;6.972;2023-04-15T00:25:50;3.83;;;3.20;;
11709;SDS011;5911;51.036;6.972;2023-04-15T00:28:18;6.00;;;3.53;;
11709;SDS011;5911;51.036;6.972;2023-04-15T00:30:47;6.63;;;3.47;;
11709;SDS011;5911;51.036;6.972;2023-04-15T00:33:15;6.63;;;3.60;;
11709;SDS011;5911;51.036;6.972;2023-04-15T00:35:43;4.27;;;2.80;;
11709;SDS011;5911;51.036;6.972;2023-04-15T00:38:11;4.37;;;3.17;;
11709;SDS011;5911;51.036;6.972;2023-04-15T00:40:40;6.60;;;3.10;;
11709;SDS011;5911;51.036;6.972;2023-04-15T00:43:08;7.97;;;3.83;;
11709;SDS011;5911;51.036;6.972;2023-04-15T00:45:36;4.03;;;3.53;;
11709;SDS011;5911;51.036;6.972;2023-04-15T00:48:05;4.93;;;3.30;;
11709;SDS011;5911;51.036;6.972;2023-04-15T00:50:34;5.67;;;3.40;;
11709;SDS011;5911;51.036;6.972;2023-04-15T00:53:02;6.30;;;4.10;;
11709;SDS011;5911;51.036;6.972;2023-04-15T00:55:31;7.60;;;3.80;;
11709;SDS011;5911;51.036;6.972;2023-04-15T00:57:59;6.00;;;3.70;;
11709;SDS011;5911;51.036;6.972;2023-04-15T01:00:27;6.60;;;4.10;;
11709;SDS011;5911;51.036;6.972;2023-04-15T01:02:57;4.20;;;3.60;;
11709;SDS011;5911;51.036;6.972;2023-04-15T01:05:26;6.30;;;3.50;;
11709;SDS011;5911;51.036;6.972;2023-04-15T01:07:55;4.37;;;3.20;;
11709;SDS011;5911;51.036;6.972;2023-04-15T01:10:23;6.03;;;3.73;;
11709;SDS011;5911;51.036;6.972;2023-04-15T01:12:51;5.97;;;3.57;;
11709;SDS011;5911;51.036;6.972;2023-04-15T01:15:18;6.40;;;3.40;;
11709;SDS011;5911;51.036;6.972;2023-04-15T01:17:47;6.77;;;3.90;;
11709;SDS011;5911;51.036;6.972;2023-04-15T01:20:15;6.30;;;2.90;;
11709;SDS011;5911;51.036;6.972;2023-04-15T01:22:44;5.17;;;3.50;;
11709;SDS011;5911;51.036;6.972;2023-04-15T01:25:14;6.63;;;3.30;;
11709;SDS011;5911;51.036;6.972;2023-04-15T01:27:46;4.83;;;3.57;;
11709;SDS011;5911;51.036;6.972;2023-04-15T01:30:14;6.33;;;3.27;;
11709;SDS011;5911;51.036;6.972;2023-04-15T01:32:42;7.60;;;3.80;;
11709;SDS011;5911;51.036;6.972;2023-04-15T01:35:10;4.67;;;3.57;;
11709;SDS011;5911;51.036;6.972;2023-04-15T01:37:38;6.10;;;3.37;;
11709;SDS011;5911;51.036;6.972;2023-04-15T01:40:06;5.17;;;3.10;;
11709;SDS011;5911;51.036;6.972;2023-04-15T01:42:35;4.37;;;3.53;;
11709;SDS011;5911;51.036;6.972;2023-04-15T01:45:05;5.97;;;3.73;;
11709;SDS011;5911;51.036;6.972;2023-04-15T01:47:36;6.73;;;3.60;;
11709;SDS011;5911;51.036;6.972;2023-04-15T01:50:04;6.43;;;3.50;;
11709;SDS011;5911;51.036;6.972;2023-04-15T01:52:33;7.17;;;3.70;;
11709;SDS011;5911;51.036;6.972;2023-04-15T01:55:01;6.40;;;3.57;;
11709;SDS011;5911;51.036;6.972;2023-04-15T01:57:30;6.93;;;3.87;;
11709;SDS011;5911;51.036;6.972;2023-04-15T01:59:57;6.30;;;3.87;;
11709;SDS011;5911;51.036;6.972;2023-04-15T02:02:26;4.67;;;3.87;;
11709;SDS011;5911;51.036;6.972;2023-04-15T02:04:55;5.23;;;4.03;;
11709;SDS011;5911;51.036;6.972;2023-04-15T02:07:22;6.20;;;3.70;;
11709;SDS011;5911;51.036;6.972;2023-04-15T02:09:50;6.43;;;4.10;;
11709;SDS011;5911;51.036;6.972;2023-04-15T02:12:18;6.37;;;3.60;;
11709;SDS011;5911;51.036;6.972;2023-04-15T02:14:46;4.70;;;3.13;;
11709;SDS011;5911;51.036;6.972;2023-04-15T02:17:14;7.17;;;3.83;;
11709;SDS011;5911;51.036;6.972;2023-04-15T02:19:44;6.50;;;3.60;;
11709;SDS011;5911;51.036;6.972;2023-04-15T02:22:11;6.83;;;3.40;;
11709;SDS011;5911;51.036;6.972;2023-04-15T02:24:44;4.43;;;3.30;;
11709;SDS011;5911;51.036;6.972;2023-04-15T02:27:14;5.73;;;3.50;;
11709;SDS011;5911;51.036;6.972;2023-04-15T02:29:43;4.87;;;3.83;;
11709;SDS011;5911;51.036;6.972;2023-04-15T02:32:11;5.23;;;3.90;;
11709;SDS011;5911;51.036;6.972;2023-04-15T02:34:39;5.03;;;3.87;;
11709;SDS011;5911;51.036;6.972;2023-04-15T02:37:10;8.13;;;4.00;;
11709;SDS011;5911;51.036;6.972;2023-04-15T02:39:38;5.97;;;4.27;;
11709;SDS011;5911;51.036;6.972;2023-04-15T02:42:06;7.73;;;4.40;;
11709;SDS011;5911;51.036;6.972;2023-04-15T02:44:35;5.53;;;4.30;;
11709;SDS011;5911;51.036;6.972;2023-04-15T02:47:04;6.53;;;4.20;;
11709;SDS011;5911;51.036;6.972;2023-04-15T02:49:32;6.90;;;4.10;;
11709;SDS011;5911;51.036;6.972;2023-04-15T02:52:00;7.07;;;4.30;;
11709;SDS011;5911;51.036;6.972;2023-04-15T02:54:29;5.43;;;4.10;;
11709;SDS011;5911;51.036;6.972;2023-04-15T02:56:59;5.73;;;3.90;;
11709;SDS011;5911;51.036;6.972;2023-04-15T02:59:27;4.30;;;3.87;;
11709;SDS011;5911;51.036;6.972;2023-04-15T03:01:55;6.57;;;3.90;;
11709;SDS011;5911;51.036;6.972;2023-04-15T03:04:26;5.43;;;3.67;;
11709;SDS011;5911;51.036;6.972;2023-04-15T03:06:55;7.47;;;4.20;;
11709;SDS011;5911;51.036;6.972;2023-04-15T03:09:24;5.27;;;4.10;;
11709;SDS011;5911;51.036;6.972;2023-04-15T03:11:54;5.77;;;3.67;;
11709;SDS011;5911;51.036;6.972;2023-04-15T03:14:22;7.63;;;3.97;;
11709;SDS011;5911;51.036;6.972;2023-04-15T03:16:51;5.63;;;3.83;;
11709;SDS011;5911;51.036;6.972;2023-04-15T03:19:19;6.37;;;3.60;;
11709;SDS011;5911;51.036;6.972;2023-04-15T03:21:46;8.67;;;3.93;;
11709;SDS011;5911;51.036;6.972;2023-04-15T03:24:15;4.80;;;3.67;;
11709;SDS011;5911;51.036;6.972;2023-04-15T03:26:43;5.70;;;4.33;;
11709;SDS011;5911;51.036;6.972;2023-04-15T03:29:16;8.93;;;4.10;;
11709;SDS011;5911;51.036;6.972;2023-04-15T03:31:44;7.77;;;4.03;;
11709;SDS011;5911;51.036;6.972;2023-04-15T03:34:12;4.90;;;3.67;;
11709;SDS011;5911;51.036;6.972;2023-04-15T03:36:40;4.60;;;3.53;;
11709;SDS011;5911;51.036;6.972;2023-04-15T03:39:08;6.17;;;4.10;;
11709;SDS011;5911;51.036;6.972;2023-04-15T03:41:36;4.70;;;3.30;;
11709;SDS011;5911;51.036;6.972;2023-04-15T03:44:04;6.77;;;3.73;;
11709;SDS011;5911;51.036;6.972;2023-04-15T03:46:33;5.80;;;3.87;;
11709;SDS011;5911;51.036;6.972;2023-04-15T03:49:01;6.87;;;3.60;;
11709;SDS011;5911;51.036;6.972;2023-04-15T03:51:29;4.87;;;3.40;;
11709;SDS011;5911;51.036;6.972;2023-04-15T03:53:57;5.63;;;3.93;;
11709;SDS011;5911;51.036;6.972;2023-04-15T03:56:25;5.13;;;3.40;;
11709;SDS011;5911;51.036;6.972;2023-04-15T03:58:53;6.03;;;3.60;;
11709;SDS011;5911;51.036;6.972;2023-04-15T04:01:21;5.27;;;3.60;;
11709;SDS011;5911;51.036;6.972;2023-04-15T04:03:50;5.50;;;3.90;;
11709;SDS011;5911;51.036;6.972;2023-04-15T04:06:18;7.73;;;3.80;;
11709;SDS011;5911;51.036;6.972;2023-04-15T04:08:46;4.63;;;3.80;;
11709;SDS011;5911;51.036;6.972;2023-04-15T04:11:14;4.97;;;3.53;;
11709;SDS011;5911;51.036;6.972;2023-04-15T04:13:42;5.23;;;3.73;;
11709;SDS011;5911;51.036;6.972;2023-04-15T04:16:10;7.10;;;4.67;;
11709;SDS011;5911;51.036;6.972;2023-04-15T04:18:38;7.30;;;3.83;;
11709;SDS011;5911;51.036;6.972;2023-04-15T04:21:07;7.40;;;4.30;;
11709;SDS011;5911;51.036;6.972;2023-04-15T04:23:35;8.33;;;4.10;;
11709;SDS011;5911;51.036;6.972;2023-04-15T04:26:03;6.90;;;3.57;;
11709;SDS011;5911;51.036;6.972;2023-04-15T04:28:30;7.03;;;3.87;;
11709;SDS011;5911;51.036;6.972;2023-04-15T04:30:58;8.80;;;4.07;;
11709;SDS011;5911;51.036;6.972;2023-04-15T04:33:26;7.17;;;3.60;;
11709;SDS011;5911;51.036;6.972;2023-04-15T04:35:54;8.27;;;4.00;;
11709;SDS011;5911;51.036;6.972;2023-04-15T04:38:23;9.50;;;4.67;;
11709;SDS011;5911;51.036;6.972;2023-04-15T04:40:51;6.33;;;4.00;;
11709;SDS011;5911;51.036;6.972;2023-04-15T04:43:19;12.47;;;4.07;;
11709;SDS011;5911;51.036;6.972;2023-04-15T04:45:46;6.17;;;4.10;;
11709;SDS011;5911;51.036;6.972;2023-04-15T04:48:14;6.00;;;3.60;;
11709;SDS011;5911;51.036;6.972;2023-04-15T04:50:43;5.73;;;4.03;;
11709;SDS011;5911;51.036;6.972;2023-04-15T04:53:12;5.70;;;3.93;;
11709;SDS011;5911;51.036;6.972;2023-04-15T04:55:41;7.67;;;4.37;;
11709;SDS011;5911;51.036;6.972;2023-04-15T04:58:09;7.07;;;4.47;;
11709;SDS011;5911;51.036;6.972;2023-04-15T05:00:37;8.50;;;4.47;;
11709;SDS011;5911;51.036;6.972;2023-04-15T05:03:05;7.10;;;3.90;;
11709;SDS011;5911;51.036;6.972;2023-04-15T05:05:33;6.50;;;4.00;;
11709;SDS011;5911;51.036;6.972;2023-04-15T05:08:02;5.70;;;4.43;;
11709;SDS011;5911;51.036;6.972;2023-04-15T05:10:30;6.77;;;4.90;;
11709;SDS011;5911;51.036;6.972;2023-04-15T05:12:59;8.00;;;4.73;;
11709;SDS011;5911;51.036;6.972;2023-04-15T05:15:27;5.10;;;4.03;;
11709;SDS011;5911;51.036;6.972;2023-04-15T05:17:55;8.10;;;4.90;;
11709;SDS011;5911;51.036;6.972;2023-04-15T05:20:22;9.20;;;5.40;;
11709;SDS011;5911;51.036;6.972;2023-04-15T05:22:50;8.27;;;5.40;;
11709;SDS011;5911;51.036;6.972;2023-04-15T05:25:18;8.60;;;5.77;;
11709;SDS011;5911;51.036;6.972;2023-04-15T05:27:46;6.27;;;4.60;;
11709;SDS011;5911;51.036;6.972;2023-04-15T05:30:15;8.73;;;5.30;;
11709;SDS011;5911;51.036;6.972;2023-04-15T05:32:43;6.60;;;5.00;;
11709;SDS011;5911;51.036;6.972;2023-04-15T05:35:11;6.67;;;4.77;;
11709;SDS011;5911;51.036;6.972;2023-04-15T05:37:39;5.47;;;4.97;;
11709;SDS011;5911;51.036;6.972;2023-04-15T05:40:07;7.93;;;5.10;;
11709;SDS011;5911;51.036;6.972;2023-04-15T05:42:35;7.50;;;5.20;;
11709;SDS011;5911;51.036;6.972;2023-04-15T05:45:04;9.37;;;5.50;;
11709;SDS011;5911;51.036;6.972;2023-04-15T05:47:35;9.47;;;5.60;;
11709;SDS011;5911;51.036;6.972;2023-04-15T05:50:04;8.10;;;5.73;;
11709;SDS011;5911;51.036;6.972;2023-04-15T05:52:32;10.17;;;5.77;;
11709;SDS011;5911;51.036;6.972;2023-04-15T05:55:00;7.90;;;5.57;;
11709;SDS011;5911;51.036;6.972;2023-04-15T05:57:28;12.03;;;5.77;;
11709;SDS011;5911;51.036;6.972;2023-04-15T05:59:55;7.00;;;5.43;;
11709;SDS011;5911;51.036;6.972;2023-04-15T06:02:23;8.27;;;6.33;;
11709;SDS011;5911;51.036;6.972;2023-04-15T06:04:53;9.87;;;6.30;;
11709;SDS011;5911;51.036;6.972;2023-04-15T06:07:21;8.63;;;6.47;;
11709;SDS011;5911;51.036;6.972;2023-04-15T06:09:49;10.80;;;6.47;;
11709;SDS011;5911;51.036;6.972;2023-04-15T06:12:16;8.27;;;6.30;;
11709;SDS011;5911;51.036;6.972;2023-04-15T06:14:44;12.73;;;7.43;;
11709;SDS011;5911;51.036;6.972;2023-04-15T06:17:12;13.77;;;6.90;;
11709;SDS011;5911;51.036;6.972;2023-04-15T06:19:43;8.73;;;6.80;;
11709;SDS011;5911;51.036;6.972;2023-04-15T06:22:12;12.10;;;7.07;;
11709;SDS011;5911;51.036;6.972;2023-04-15T06:24:41;9.27;;;6.90;;
11709;SDS011;5911;51.036;6.972;2023-04-15T06:27:08;7.03;;;5.67;;
11709;SDS011;5911;51.036;6.972;2023-04-15T06:29:36;11.33;;;7.00;;
11709;SDS011;5911;51.036;6.972;2023-04-15T06:32:04;10.17;;;6.93;;
11709;SDS011;5911;51.036;6.972;2023-04-15T06:34:33;12.30;;;8.23;;
11709;SDS011;5911;51.036;6.972;2023-04-15T06:37:00;8.87;;;7.67;;
11709;SDS011;5911;51.036;6.972;2023-04-15T06:39:32;10.40;;;7.40;;
11709;SDS011;5911;51.036;6.972;2023-04-15T06:42:01;9.10;;;7.23;;
11709;SDS011;5911;51.036;6.972;2023-04-15T06:44:29;9.07;;;7.77;;
11709;SDS011;5911;51.036;6.972;2023-04-15T06:46:59;8.50;;;7.57;;
11709;SDS011;5911;51.036;6.972;2023-04-15T06:49:28;7.73;;;6.93;;
11709;SDS011;5911;51.036;6.972;2023-04-15T06:51:56;9.17;;;7.17;;
11709;SDS011;5911;51.036;6.972;2023-04-15T06:54:24;8.57;;;7.67;;
11709;SDS011;5911;51.036;6.972;2023-04-15T06:56:53;8.03;;;7.30;;
11709;SDS011;5911;51.036;6.972;2023-04-15T06:59:21;8.23;;;7.00;;
11709;SDS011;5911;51.036;6.972;2023-04-15T07:01:49;8.30;;;7.37;;
11709;SDS011;5911;51.036;6.972;2023-04-15T07:04:17;8.70;;;7.80;;
11709;SDS011;5911;51.036;6.972;2023-04-15T07:06:45;9.93;;;7.30;;
11709;SDS011;5911;51.036;6.972;2023-04-15T07:09:13;10.03;;;7.87;;
11709;SDS011;5911;51.036;6.972;2023-04-15T07:11:41;9.53;;;7.73;;
11709;SDS011;5911;51.036;6.972;2023-04-15T07:14:10;9.37;;;7.53;;
11709;SDS011;5911;51.036;6.972;2023-04-15T07:16:38;8.83;;;7.10;;
11709;SDS011;5911;51.036;6.972;2023-04-15T07:19:05;8.63;;;7.57;;
11709;SDS011;5911;51.036;6.972;2023-04-15T07:21:33;8.90;;;7.57;;
11709;SDS011;5911;51.036;6.972;2023-04-15T07:24:01;7.93;;;7.13;;
11709;SDS011;5911;51.036;6.972;2023-04-15T07:26:29;9.83;;;7.37;;
11709;SDS011;5911;51.036;6.972;2023-04-15T07:28:57;7.23;;;6.10;;
11709;SDS011;5911;51.036;6.972;2023-04-15T07:31:26;8.00;;;6.63;;
11709;SDS011;5911;51.036;6.972;2023-04-15T07:33:54;6.57;;;5.97;;
11709;SDS011;5911;51.036;6.972;2023-04-15T07:36:22;8.03;;;5.33;;
11709;SDS011;5911;51.036;6.972;2023-04-15T07:38:50;7.97;;;4.93;;
11709;SDS011;5911;51.036;6.972;2023-04-15T07:41:18;10.77;;;5.03;;
11709;SDS011;5911;51.036;6.972;2023-04-15T07:43:46;5.73;;;4.13;;
11709;SDS011;5911;51.036;6.972;2023-04-15T07:46:14;5.00;;;3.70;;
11709;SDS011;5911;51.036;6.972;2023-04-15T07:48:43;4.67;;;3.20;;
11709;SDS011;5911;51.036;6.972;2023-04-15T07:51:11;3.97;;;3.33;;
11709;SDS011;5911;51.036;6.972;2023-04-15T07:53:39;3.50;;;2.87;;
11709;SDS011;5911;51.036;6.972;2023-04-15T07:56:07;3.53;;;3.23;;
11709;SDS011;5911;51.036;6.972;2023-04-15T07:58:35;4.70;;;2.97;;
11709;SDS011;5911;51.036;6.972;2023-04-15T08:01:03;4.20;;;2.87;;
11709;SDS011;5911;51.036;6.972;2023-04-15T08:03:31;3.73;;;2.70;;
11709;SDS011;5911;51.036;6.972;2023-04-15T08:06:00;7.20;;;2.60;;
11709;SDS011;5911;51.036;6.972;2023-04-15T08:08:28;5.60;;;2.43;;
11709;SDS011;5911;51.036;6.972;2023-04-15T08:10:56;3.57;;;1.93;;
11709;SDS011;5911;51.036;6.972;2023-04-15T08:13:24;2.83;;;2.10;;
11709;SDS011;5911;51.036;6.972;2023-04-15T08:16:12;3.73;;;2.10;;
11709;SDS011;5911;51.036;6.972;2023-04-15T08:18:41;2.93;;;2.17;;
11709;SDS011;5911;51.036;6.972;2023-04-15T08:21:10;2.90;;;2.60;;
11709;SDS011;5911;51.036;6.972;2023-04-15T08:23:38;3.20;;;2.17;;
11709;SDS011;5911;51.036;6.972;2023-04-15T08:26:06;2.60;;;2.40;;
11709;SDS011;5911;51.036;6.972;2023-04-15T08:28:35;2.70;;;2.33;;
11709;SDS011;5911;51.036;6.972;2023-04-15T08:31:04;2.90;;;2.07;;
11709;SDS011;5911;51.036;6.972;2023-04-15T08:33:32;5.17;;;2.07;;
11709;SDS011;5911;51.036;6.972;2023-04-15T08:36:00;3.53;;;2.33;;
11709;SDS011;5911;51.036;6.972;2023-04-15T08:38:30;3.37;;;2.30;;
11709;SDS011;5911;51.036;6.972;2023-04-15T08:40:58;4.13;;;2.20;;
11709;SDS011;5911;51.036;6.972;2023-04-15T08:43:27;1.97;;;1.80;;
11709;SDS011;5911;51.036;6.972;2023-04-15T08:46:00;6.10;;;2.37;;
11709;SDS011;5911;51.036;6.972;2023-04-15T08:48:31;4.30;;;2.30;;
11709;SDS011;5911;51.036;6.972;2023-04-15T08:50:59;3.83;;;2.37;;
11709;SDS011;5911;51.036;6.972;2023-04-15T08:53:29;4.05;;;2.70;;
11709;SDS011;5911;51.036;6.972;2023-04-15T08:55:58;4.93;;;2.60;;
11709;SDS011;5911;51.036;6.972;2023-04-15T08:58:28;2.40;;;2.20;;
11709;SDS011;5911;51.036;6.972;2023-04-15T09:00:56;3.37;;;2.60;;
11709;SDS011;5911;51.036;6.972;2023-04-15T09:03:25;2.63;;;2.43;;
11709;SDS011;5911;51.036;6.972;2023-04-15T09:05:54;2.67;;;2.43;;
11709;SDS011;5911;51.036;6.972;2023-04-15T09:08:23;2.70;;;2.50;;
11709;SDS011;5911;51.036;6.972;2023-04-15T09:10:53;2.93;;;2.27;;
11709;SDS011;5911;51.036;6.972;2023-04-15T09:13:21;2.80;;;2.50;;
11709;SDS011;5911;51.036;6.972;2023-04-15T09:15:49;2.67;;;2.30;;
11709;SDS011;5911;51.036;6.972;2023-04-15T09:18:25;3.08;;;2.78;;
11709;SDS011;5911;51.036;6.972;2023-04-15T09:20:55;2.97;;;2.30;;
11709;SDS011;5911;51.036;6.972;2023-04-15T09:23:22;3.20;;;2.72;;
11709;SDS011;5911;51.036;6.972;2023-04-15T09:25:50;2.55;;;2.30;;
11709;SDS011;5911;51.036;6.972;2023-04-15T09:28:24;2.88;;;2.05;;
11709;SDS011;5911;51.036;6.972;2023-04-15T09:30:54;3.00;;;2.20;;
11709;SDS011;5911;51.036;6.972;2023-04-15T09:33:23;3.88;;;2.53;;
11709;SDS011;5911;51.036;6.972;2023-04-15T09:35:55;2.50;;;2.30;;
11709;SDS011;5911;51.036;6.972;2023-04-15T09:38:25;3.40;;;2.10;;
11709;SDS011;5911;51.036;6.972;2023-04-15T09:40:54;2.30;;;2.10;;
11709;SDS011;5911;51.036;6.972;2023-04-15T09:43:26;3.73;;;2.47;;
11709;SDS011;5911;51.036;6.972;2023-04-15T09:46:04;4.27;;;2.83;;
11709;SDS011;5911;51.036;6.972;2023-04-15T09:48:32;3.40;;;3.10;;
11709;SDS011;5911;51.036;6.972;2023-04-15T09:50:59;4.33;;;3.30;;
11709;SDS011;5911;51.036;6.972;2023-04-15T09:53:28;5.45;;;3.63;;
11709;SDS011;5911;51.036;6.972;2023-04-15T09:55:57;2.97;;;2.77;;
11709;SDS011;5911;51.036;6.972;2023-04-15T09:58:28;4.40;;;3.20;;
11709;SDS011;5911;51.036;6.972;2023-04-15T10:00:58;3.43;;;2.90;;
11709;SDS011;5911;51.036;6.972;2023-04-15T10:03:27;3.17;;;2.87;;
11709;SDS011;5911;51.036;6.972;2023-04-15T10:05:57;6.23;;;3.30;;
11709;SDS011;5911;51.036;6.972;2023-04-15T10:08:27;4.57;;;2.50;;
11709;SDS011;5911;51.036;6.972;2023-04-15T10:10:56;2.70;;;2.50;;
11709;SDS011;5911;51.036;6.972;2023-04-15T10:13:24;3.63;;;2.77;;
11709;SDS011;5911;51.036;6.972;2023-04-15T10:15:57;4.07;;;3.25;;
11709;SDS011;5911;51.036;6.972;2023-04-15T10:18:26;3.53;;;2.90;;
11709;SDS011;5911;51.036;6.972;2023-04-15T10:20:55;5.22;;;3.95;;
11709;SDS011;5911;51.036;6.972;2023-04-15T10:23:25;3.33;;;2.85;;
11709;SDS011;5911;51.036;6.972;2023-04-15T10:25:54;3.43;;;3.13;;
11709;SDS011;5911;51.036;6.972;2023-04-15T10:28:23;4.63;;;2.97;;
11709;SDS011;5911;51.036;6.972;2023-04-15T10:30:52;3.45;;;3.15;;
11709;SDS011;5911;51.036;6.972;2023-04-15T10:33:22;4.67;;;3.13;;
11709;SDS011;5911;51.036;6.972;2023-04-15T10:35:53;3.87;;;3.47;;
11709;SDS011;5911;51.036;6.972;2023-04-15T10:38:32;3.47;;;3.07;;
11709;SDS011;5911;51.036;6.972;2023-04-15T10:41:14;5.03;;;3.00;;
11709;SDS011;5911;51.036;6.972;2023-04-15T10:43:50;2.87;;;2.50;;
11709;SDS011;5911;51.036;6.972;2023-04-15T10:46:20;4.05;;;3.65;;
11709;SDS011;5911;51.036;6.972;2023-04-15T10:48:51;5.03;;;3.35;;
11709;SDS011;5911;51.036;6.972;2023-04-15T10:51:27;3.00;;;2.70;;
11709;SDS011;5911;51.036;6.972;2023-04-15T10:53:56;3.20;;;2.90;;
11709;SDS011;5911;51.036;6.972;2023-04-15T10:56:26;4.57;;;2.80;;
11709;SDS011;5911;51.036;6.972;2023-04-15T10:58:55;3.53;;;3.22;;
11709;SDS011;5911;51.036;6.972;2023-04-15T11:13:25;3.00;;;2.40;;
11709;SDS011;5911;51.036;6.972;2023-04-15T11:15:56;3.05;;;2.22;;
11709;SDS011;5911;51.036;6.972;2023-04-15T11:18:29;2.53;;;2.30;;
11709;SDS011;5911;51.036;6.972;2023-04-15T11:20:59;3.53;;;2.47;;
11709;SDS011;5911;51.036;6.972;2023-04-15T11:23:30;2.30;;;2.10;;
11709;SDS011;5911;51.036;6.972;2023-04-15T11:26:00;4.32;;;2.67;;
11709;SDS011;5911;51.036;6.972;2023-04-15T11:28:32;2.97;;;2.63;;
11709;SDS011;5911;51.036;6.972;2023-04-15T11:31:07;2.47;;;2.28;;
11709;SDS011;5911;51.036;6.972;2023-04-15T11:33:37;2.63;;;2.40;;
11709;SDS011;5911;51.036;6.972;2023-04-15T11:36:11;2.50;;;2.30;;
11709;SDS011;5911;51.036;6.972;2023-04-15T11:38:41;2.70;;;2.37;;
11709;SDS011;5911;51.036;6.972;2023-04-15T11:41:09;3.00;;;2.58;;
11709;SDS011;5911;51.036;6.972;2023-04-15T11:43:39;2.95;;;2.75;;
11709;SDS011;5911;51.036;6.972;2023-04-15T11:46:07;2.88;;;2.60;;
11709;SDS011;5911;51.036;6.972;2023-04-15T11:48:35;2.92;;;2.72;;
11709;SDS011;5911;51.036;6.972;2023-04-15T11:51:08;3.58;;;3.28;;
11709;SDS011;5911;51.036;6.972;2023-04-15T11:53:36;3.72;;;3.42;;
11709;SDS011;5911;51.036;6.972;2023-04-15T11:56:06;4.65;;;4.25;;
11709;SDS011;5911;51.036;6.972;2023-04-15T11:58:36;5.40;;;5.00;;
11709;SDS011;5911;51.036;6.972;2023-04-15T12:01:06;4.43;;;4.13;;
11709;SDS011;5911;51.036;6.972;2023-04-15T12:03:37;4.20;;;3.80;;
11709;SDS011;5911;51.036;6.972;2023-04-15T12:06:08;4.37;;;3.97;;
11709;SDS011;5911;51.036;6.972;2023-04-15T12:08:52;4.35;;;4.00;;
11709;SDS011;5911;51.036;6.972;2023-04-15T12:11:27;4.82;;;4.47;;
11709;SDS011;5911;51.036;6.972;2023-04-15T12:13:57;5.20;;;4.80;;
11709;SDS011;5911;51.036;6.972;2023-04-15T12:16:30;5.25;;;4.85;;
11709;SDS011;5911;51.036;6.972;2023-04-15T12:19:15;5.40;;;4.90;;
11709;SDS011;5911;51.036;6.972;2023-04-15T12:21:45;6.18;;;5.60;;
11709;SDS011;5911;51.036;6.972;2023-04-15T12:24:14;6.10;;;5.60;;
11709;SDS011;5911;51.036;6.972;2023-04-15T12:26:46;5.85;;;5.35;;
11709;SDS011;5911;51.036;6.972;2023-04-15T12:29:16;5.72;;;5.32;;
11709;SDS011;5911;51.036;6.972;2023-04-15T12:31:49;5.90;;;5.35;;
11709;SDS011;5911;51.036;6.972;2023-04-15T12:34:23;6.17;;;5.67;;
11709;SDS011;5911;51.036;6.972;2023-04-15T12:36:53;6.63;;;6.13;;
11709;SDS011;5911;51.036;6.972;2023-04-15T12:39:22;5.57;;;5.18;;
11709;SDS011;5911;51.036;6.972;2023-04-15T12:41:50;5.70;;;5.20;;
11709;SDS011;5911;51.036;6.972;2023-04-15T12:44:19;5.68;;;5.18;;
11709;SDS011;5911;51.036;6.972;2023-04-15T12:46:50;5.53;;;4.80;;
11709;SDS011;5911;51.036;6.972;2023-04-15T12:49:19;5.10;;;4.72;;
11709;SDS011;5911;51.036;6.972;2023-04-15T12:51:49;5.18;;;4.75;;
11709;SDS011;5911;51.036;6.972;2023-04-15T12:54:18;4.72;;;4.32;;
11709;SDS011;5911;51.036;6.972;2023-04-15T12:56:46;5.27;;;4.80;;
11709;SDS011;5911;51.036;6.972;2023-04-15T12:59:16;4.33;;;4.03;;
11709;SDS011;5911;51.036;6.972;2023-04-15T13:01:44;4.63;;;4.22;;
11709;SDS011;5911;51.036;6.972;2023-04-15T13:04:14;4.60;;;4.15;;
11709;SDS011;5911;51.036;6.972;2023-04-15T13:06:42;4.50;;;4.10;;
11709;SDS011;5911;51.036;6.972;2023-04-15T13:09:10;5.50;;;5.00;;
11709;SDS011;5911;51.036;6.972;2023-04-15T13:11:38;5.35;;;4.93;;
11709;SDS011;5911;51.036;6.972;2023-04-15T13:14:07;5.25;;;4.85;;
11709;SDS011;5911;51.036;6.972;2023-04-15T13:16:36;5.22;;;4.82;;
11709;SDS011;5911;51.036;6.972;2023-04-15T13:19:05;4.85;;;4.45;;
11709;SDS011;5911;51.036;6.972;2023-04-15T13:21:34;4.85;;;4.45;;
11709;SDS011;5911;51.036;6.972;2023-04-15T13:24:02;5.33;;;4.87;;
11709;SDS011;5911;51.036;6.972;2023-04-15T13:26:32;4.95;;;4.55;;
11709;SDS011;5911;51.036;6.972;2023-04-15T13:29:02;4.70;;;4.30;;
11709;SDS011;5911;51.036;6.972;2023-04-15T13:31:30;4.78;;;4.38;;
11709;SDS011;5911;51.036;6.972;2023-04-15T13:33:58;5.00;;;4.60;;
11709;SDS011;5911;51.036;6.972;2023-04-15T13:36:26;4.88;;;4.35;;
11709;SDS011;5911;51.036;6.972;2023-04-15T13:38:55;5.30;;;4.80;;
11709;SDS011;5911;51.036;6.972;2023-04-15T13:41:23;4.90;;;4.40;;
11709;SDS011;5911;51.036;6.972;2023-04-15T13:43:52;5.33;;;4.90;;
11709;SDS011;5911;51.036;6.972;2023-04-15T13:46:20;4.65;;;4.20;;
11709;SDS011;5911;51.036;6.972;2023-04-15T13:48:48;4.07;;;3.78;;
11709;SDS011;5911;51.036;6.972;2023-04-15T13:51:16;3.00;;;2.80;;
11709;SDS011;5911;51.036;6.972;2023-04-15T13:53:43;4.18;;;3.50;;
11709;SDS011;5911;51.036;6.972;2023-04-15T13:56:12;3.70;;;2.97;;
11709;SDS011;5911;51.036;6.972;2023-04-15T13:58:40;5.65;;;3.75;;
11709;SDS011;5911;51.036;6.972;2023-04-15T14:01:09;3.90;;;3.50;;
11709;SDS011;5911;51.036;6.972;2023-04-15T14:03:39;5.67;;;4.27;;
11709;SDS011;5911;51.036;6.972;2023-04-15T14:06:07;4.82;;;3.90;;
11709;SDS011;5911;51.036;6.972;2023-04-15T14:08:35;3.70;;;3.40;;
11709;SDS011;5911;51.036;6.972;2023-04-15T14:11:03;5.37;;;3.67;;
11709;SDS011;5911;51.036;6.972;2023-04-15T14:13:34;4.93;;;3.60;;
11709;SDS011;5911;51.036;6.972;2023-04-15T14:16:02;4.70;;;3.45;;
11709;SDS011;5911;51.036;6.972;2023-04-15T14:18:30;3.53;;;3.23;;
11709;SDS011;5911;51.036;6.972;2023-04-15T14:20:57;3.58;;;3.28;;
11709;SDS011;5911;51.036;6.972;2023-04-15T14:23:25;5.20;;;3.25;;
11709;SDS011;5911;51.036;6.972;2023-04-15T14:25:53;3.53;;;3.23;;
11709;SDS011;5911;51.036;6.972;2023-04-15T14:28:21;3.37;;;3.07;;
11709;SDS011;5911;51.036;6.972;2023-04-15T14:30:50;5.03;;;3.53;;
11709;SDS011;5911;51.036;6.972;2023-04-15T14:33:18;3.73;;;3.30;;
11709;SDS011;5911;51.036;6.972;2023-04-15T14:35:48;4.00;;;3.60;;
11709;SDS011;5911;51.036;6.972;2023-04-15T14:38:18;4.60;;;3.80;;
11709;SDS011;5911;51.036;6.972;2023-04-15T14:40:48;5.18;;;4.30;;
11709;SDS011;5911;51.036;6.972;2023-04-15T14:43:15;4.83;;;4.43;;
11709;SDS011;5911;51.036;6.972;2023-04-15T14:45:43;4.03;;;3.60;;
11709;SDS011;5911;51.036;6.972;2023-04-15T14:48:13;4.15;;;3.75;;
11709;SDS011;5911;51.036;6.972;2023-04-15T14:50:40;4.27;;;3.77;;
11709;SDS011;5911;51.036;6.972;2023-04-15T14:53:08;3.80;;;3.40;;
11709;SDS011;5911;51.036;6.972;2023-04-15T14:55:36;3.20;;;2.90;;
11709;SDS011;5911;51.036;6.972;2023-04-15T14:58:04;3.80;;;3.40;;
11709;SDS011;5911;51.036;6.972;2023-04-15T15:00:33;3.93;;;3.50;;
11709;SDS011;5911;51.036;6.972;2023-04-15T15:03:01;5.87;;;3.50;;
11709;SDS011;5911;51.036;6.972;2023-04-15T15:05:30;3.97;;;3.45;;
11709;SDS011;5911;51.036;6.972;2023-04-15T15:07:58;6.40;;;4.97;;
11709;SDS011;5911;51.036;6.972;2023-04-15T15:10:26;6.97;;;6.27;;
11709;SDS011;5911;51.036;6.972;2023-04-15T15:13:14;7.50;;;6.70;;
11709;SDS011;5911;51.036;6.972;2023-04-15T15:15:42;7.43;;;6.57;;
11709;SDS011;5911;51.036;6.972;2023-04-15T15:18:10;5.50;;;5.00;;
11709;SDS011;5911;51.036;6.972;2023-04-15T15:20:39;5.00;;;4.50;;
11709;SDS011;5911;51.036;6.972;2023-04-15T15:23:07;5.87;;;5.37;;